Time;durP1;ratioP1;P1;durP2;ratioP2;P2;SDS_P1;SDS_P2;PMS_P1;PMS_P2;Temp;Humidity;BMP_temperature;BMP_pressure;BME280_temperature;BME280_humidity;BME280_pressure;Samples;Min_cycle;Max_cycle;Signal;HPM_P1;HPM_P2
2022/06/29 00:02:06;;;;;;;5.65;3.72;;;13.20;99.90;;;;;;5047316;28;20049;-54
2022/06/29 00:04:32;;;;;;;7.35;4.25;;;13.80;99.90;;;;;;5048577;28;20079;-54
2022/06/29 00:06:58;;;;;;;7.00;4.28;;;13.40;99.90;;;;;;5051307;28;20061;-54
2022/06/29 00:09:23;;;;;;;5.40;4.20;;;14.00;99.90;;;;;;5051087;28;20049;-55
2022/06/29 00:11:49;;;;;;;11.30;4.25;;;13.00;99.90;;;;;;5051187;28;20758;-55
2022/06/29 00:14:14;;;;;;;4.97;4.45;;;13.40;99.90;;;;;;5051342;28;20047;-54
2022/06/29 00:16:40;;;;;;;5.47;4.72;;;13.00;99.90;;;;;;5051656;28;20040;-54
2022/06/29 00:19:06;;;;;;;6.35;4.50;;;13.00;99.90;;;;;;5051673;28;20063;-55
2022/06/29 00:21:33;;;;;;;8.15;5.10;;;13.30;99.90;;;;;;5051425;28;20037;-54
2022/06/29 00:23:59;;;;;;;6.90;5.30;;;13.20;99.90;;;;;;5051204;28;20049;-55
2022/06/29 00:26:26;;;;;;;10.02;5.38;;;13.40;99.90;;;;;;5051035;28;20036;-54
2022/06/29 00:28:52;;;;;;;11.48;5.65;;;13.10;99.90;;;;;;5050918;28;20126;-54
2022/06/29 00:31:18;;;;;;;6.35;5.10;;;13.30;99.90;;;;;;5051050;28;20064;-54
2022/06/29 00:33:43;;;;;;;6.82;5.35;;;13.20;99.90;;;;;;5051200;28;20150;-54
2022/06/29 00:36:09;;;;;;;8.88;5.65;;;13.10;99.90;;;;;;5051333;28;20040;-55
2022/06/29 00:38:35;;;;;;;7.75;6.28;;;12.80;99.90;;;;;;5051054;28;20052;-55
2022/06/29 00:41:01;;;;;;;6.60;6.00;;;12.80;99.90;;;;;;5050967;28;20047;-54
2022/06/29 00:43:26;;;;;;;11.57;6.03;;;13.10;99.90;;;;;;5051026;28;20037;-54
2022/06/29 00:45:52;;;;;;;7.50;5.32;;;13.10;99.90;;;;;;5051070;28;20435;-54
2022/06/29 00:48:18;;;;;;;6.63;5.88;;;13.00;99.90;;;;;;5050819;28;20072;-54
2022/06/29 00:50:46;;;;;;;7.95;6.53;;;12.60;99.90;;;;;;5051267;28;20052;-53
2022/06/29 00:53:16;;;;;;;11.90;6.97;;;12.80;99.90;;;;;;5049443;28;20041;-58
2022/06/29 00:55:44;;;;;;;11.68;6.97;;;12.90;99.90;;;;;;5050611;28;20048;-53
2022/06/29 00:58:11;;;;;;;10.32;6.55;;;12.80;99.90;;;;;;5050733;28;20052;-54
2022/06/29 01:00:37;;;;;;;10.20;6.75;;;13.10;99.90;;;;;;5050697;28;20036;-54
2022/06/29 01:03:03;;;;;;;11.23;6.30;;;12.90;99.90;;;;;;5050700;28;20040;-51
2022/06/29 01:05:31;;;;;;;9.60;6.53;;;12.60;99.90;;;;;;5050419;28;20494;-54
2022/06/29 01:07:58;;;;;;;13.45;6.72;;;12.60;99.90;;;;;;5050196;28;20049;-54
2022/06/29 01:10:24;;;;;;;10.82;7.15;;;12.80;99.90;;;;;;5049784;28;20089;-53
2022/06/29 01:12:53;;;;;;;10.20;6.78;;;12.60;99.90;;;;;;5050637;28;20571;-54
2022/06/29 01:15:20;;;;;;;11.57;6.28;;;12.90;99.90;;;;;;5050448;28;20045;-54
2022/06/29 01:17:46;;;;;;;7.53;6.80;;;13.10;99.90;;;;;;5050361;28;20055;-54
2022/06/29 01:20:13;;;;;;;10.98;6.60;;;12.90;99.90;;;;;;5050864;28;20386;-54
2022/06/29 01:22:39;;;;;;;8.65;7.05;;;13.00;99.90;;;;;;5050487;28;20479;-54
2022/06/29 01:25:06;;;;;;;7.85;6.78;;;12.70;99.90;;;;;;5050526;28;20479;-51
2022/06/29 01:27:31;;;;;;;10.50;6.95;;;12.70;99.90;;;;;;5050435;28;20037;-54
2022/06/29 01:29:57;;;;;;;10.73;6.40;;;12.70;99.90;;;;;;5048565;28;20048;-53
2022/06/29 01:32:23;;;;;;;10.60;7.93;;;13.00;99.90;;;;;;5049817;28;20041;-53
2022/06/29 01:34:49;;;;;;;10.18;6.70;;;12.90;99.90;;;;;;5049888;28;20056;-54
2022/06/29 01:37:16;;;;;;;14.85;8.05;;;12.60;99.90;;;;;;5049982;28;20487;-52
2022/06/29 01:39:41;;;;;;;13.00;7.72;;;12.60;99.90;;;;;;5049366;28;20124;-54
2022/06/29 01:42:08;;;;;;;9.43;8.00;;;12.60;99.90;;;;;;5048538;28;20115;-52
2022/06/29 01:44:35;;;;;;;8.65;7.45;;;12.50;99.90;;;;;;5048176;28;20415;-54
2022/06/29 01:47:01;;;;;;;8.13;7.28;;;11.60;99.90;;;;;;5050203;28;20045;-53
2022/06/29 01:49:28;;;;;;;9.68;7.90;;;12.50;99.90;;;;;;5049448;28;20124;-55
2022/06/29 01:51:54;;;;;;;9.02;7.70;;;12.50;99.90;;;;;;5049736;28;20037;-52
2022/06/29 01:54:21;;;;;;;8.45;7.38;;;12.60;99.90;;;;;;5049241;28;20498;-54
2022/06/29 01:56:47;;;;;;;8.70;7.78;;;13.00;99.90;;;;;;5049510;28;20044;-51
2022/06/29 01:59:13;;;;;;;8.15;7.35;;;12.70;99.90;;;;;;5049378;28;20479;-53
2022/06/29 02:01:39;;;;;;;9.32;7.75;;;13.20;99.90;;;;;;5049460;28;20051;-54
2022/06/29 02:04:05;;;;;;;12.13;7.68;;;13.10;99.90;;;;;;5049828;28;20085;-55
2022/06/29 02:06:31;;;;;;;10.65;8.05;;;12.30;99.90;;;;;;5049276;28;20432;-54
2022/06/29 02:08:57;;;;;;;8.52;7.78;;;13.00;99.90;;;;;;5049586;28;20152;-53
2022/06/29 02:11:23;;;;;;;9.23;8.35;;;12.80;99.90;;;;;;5047256;28;20178;-54
2022/06/29 02:13:49;;;;;;;9.13;7.57;;;12.70;99.90;;;;;;5048725;28;20083;-54
2022/06/29 02:16:15;;;;;;;9.73;8.35;;;12.80;99.90;;;;;;5049279;28;20044;-55
2022/06/29 02:18:42;;;;;;;9.55;8.30;;;12.50;99.90;;;;;;5049136;28;20562;-50
2022/06/29 02:21:08;;;;;;;12.18;8.18;;;12.40;99.90;;;;;;5049444;28;20041;-53
2022/06/29 02:23:34;;;;;;;9.13;8.23;;;12.40;99.90;;;;;;5049170;28;20135;-54
2022/06/29 02:25:59;;;;;;;8.63;7.68;;;12.80;99.90;;;;;;5049323;28;20130;-51
2022/06/29 02:28:25;;;;;;;9.02;8.07;;;13.30;99.90;;;;;;5048353;28;20509;-54
2022/06/29 02:36:19;;;;;;;12.27;10.18;;;12.30;99.90;;;;;;5048814;28;20544;-51
2022/06/29 02:38:45;;;;;;;10.85;9.45;;;12.20;99.90;;;;;;5048463;28;20041;-53
2022/06/29 02:41:11;;;;;;;9.75;8.80;;;12.10;99.90;;;;;;5049052;28;20045;-52
2022/06/29 02:43:37;;;;;;;11.40;9.40;;;12.60;99.90;;;;;;5048998;28;20130;-53
2022/06/29 02:46:03;;;;;;;10.40;9.48;;;12.60;99.90;;;;;;5048220;28;20047;-52
2022/06/29 02:48:29;;;;;;;10.80;9.45;;;12.20;99.90;;;;;;5048132;28;20052;-53
2022/06/29 02:50:54;;;;;;;12.35;9.35;;;12.40;99.90;;;;;;5048449;28;20029;-53
2022/06/29 02:53:20;;;;;;;10.77;9.52;;;12.40;99.90;;;;;;5048283;28;20124;-54
2022/06/29 02:55:46;;;;;;;11.57;10.27;;;12.20;99.90;;;;;;5049012;28;20079;-52
2022/06/29 02:58:11;;;;;;;10.32;9.43;;;12.10;99.90;;;;;;5049334;28;20471;-52
2022/06/29 03:00:37;;;;;;;12.02;9.68;;;12.30;99.90;;;;;;5048752;28;20037;-52
2022/06/29 03:03:03;;;;;;;11.77;10.65;;;12.00;99.90;;;;;;5049454;28;20409;-54
2022/06/29 03:05:28;;;;;;;12.07;10.43;;;12.10;99.90;;;;;;5048470;28;20499;-52
2022/06/29 03:07:54;;;;;;;11.82;10.40;;;12.30;99.90;;;;;;5048529;28;20136;-53
2022/06/29 03:10:20;;;;;;;14.60;11.48;;;12.30;99.90;;;;;;5048243;28;20471;-53
2022/06/29 03:12:46;;;;;;;12.40;11.15;;;12.60;99.90;;;;;;5047062;28;20094;-54
2022/06/29 03:15:11;;;;;;;13.32;11.82;;;12.40;99.90;;;;;;5048795;28;20037;-50
2022/06/29 03:17:37;;;;;;;16.55;11.68;;;12.10;99.90;;;;;;5048595;28;20048;-52
2022/06/29 03:20:05;;;;;;;13.77;12.35;;;11.90;99.90;;;;;;5048356;28;20045;-53
2022/06/29 03:22:33;;;;;;;13.40;11.45;;;12.00;99.90;;;;;;5048080;28;20417;-54
2022/06/29 03:24:59;;;;;;;15.25;12.25;;;12.50;99.90;;;;;;5048229;28;20091;-54
2022/06/29 03:27:25;;;;;;;14.27;12.10;;;12.10;99.90;;;;;;5048232;28;20075;-54
2022/06/29 03:29:51;;;;;;;12.32;11.05;;;12.40;99.90;;;;;;5046472;28;20052;-53
2022/06/29 03:32:16;;;;;;;13.02;11.77;;;12.00;99.90;;;;;;5048157;28;20029;-52
2022/06/29 03:34:42;;;;;;;14.32;12.98;;;11.90;99.90;;;;;;5047966;28;20045;-52
2022/06/29 03:37:08;;;;;;;13.65;12.13;;;12.40;99.90;;;;;;5048146;28;20037;-53
2022/06/29 03:39:34;;;;;;;16.27;12.10;;;12.00;99.90;;;;;;5046957;28;20202;-52
2022/06/29 03:42:00;;;;;;;13.63;12.18;;;12.40;99.90;;;;;;5048186;28;20045;-52
2022/06/29 03:44:25;;;;;;;14.32;12.18;;;12.00;99.90;;;;;;5046789;28;20383;-53
2022/06/29 03:46:51;;;;;;;14.45;12.00;;;12.40;99.90;;;;;;5046261;28;20041;-54
2022/06/29 03:49:17;;;;;;;13.60;12.20;;;12.70;99.90;;;;;;5047457;28;20044;-53
2022/06/29 03:51:42;;;;;;;12.38;11.20;;;12.50;99.90;;;;;;5047609;28;20051;-50
2022/06/29 03:54:08;;;;;;;15.68;12.60;;;12.10;99.90;;;;;;5047728;28;20045;-55
2022/06/29 03:56:34;;;;;;;17.75;12.50;;;12.20;99.90;;;;;;5047625;28;20497;-53
2022/06/29 03:58:59;;;;;;;12.10;11.00;;;12.20;99.90;;;;;;5047754;28;20521;-54
2022/06/29 04:01:25;;;;;;;18.85;12.05;;;12.60;99.90;;;;;;5047853;28;20053;-53
2022/06/29 04:03:51;;;;;;;12.63;11.30;;;12.60;99.90;;;;;;5047872;28;20076;-53
2022/06/29 04:06:17;;;;;;;15.65;11.30;;;12.70;99.90;;;;;;5048154;28;20076;-53
2022/06/29 04:08:42;;;;;;;13.35;11.65;;;12.60;99.90;;;;;;5047587;28;20049;-53
2022/06/29 04:11:48;;;;;;;13.82;11.32;;;12.60;99.90;;;;;;5045805;28;20064;-54
2022/06/29 04:13:54;;;;;;;16.45;11.60;;;12.60;99.90;;;;;;5047534;28;20045;-54
2022/06/29 04:16:20;;;;;;;12.80;11.40;;;12.60;99.90;;;;;;5047650;28;20048;-51
2022/06/29 04:18:46;;;;;;;13.00;11.65;;;12.30;99.90;;;;;;5047556;28;20074;-53
2022/06/29 04:21:12;;;;;;;12.52;11.30;;;12.60;99.90;;;;;;5047603;28;20382;-54
2022/06/29 04:23:37;;;;;;;14.10;12.25;;;12.20;99.90;;;;;;5047424;28;20047;-50
2022/06/29 04:26:03;;;;;;;12.45;11.07;;;12.60;99.90;;;;;;5046185;28;20048;-54
2022/06/29 04:28:29;;;;;;;13.98;11.23;;;12.80;99.90;;;;;;5047614;28;20068;-53
2022/06/29 04:30:55;;;;;;;13.52;10.35;;;12.30;99.90;;;;;;5047181;28;20041;-54
2022/06/29 04:33:21;;;;;;;12.55;11.38;;;13.00;99.90;;;;;;5047485;28;20072;-54
2022/06/29 04:35:46;;;;;;;13.55;11.45;;;12.90;99.90;;;;;;5046977;28;20130;-52
2022/06/29 04:38:12;;;;;;;11.68;10.48;;;12.60;99.90;;;;;;5047727;28;20044;-54
2022/06/29 04:40:38;;;;;;;11.48;10.18;;;13.00;99.90;;;;;;5047960;28;20043;-52
2022/06/29 04:43:03;;;;;;;12.70;10.75;;;13.20;99.90;;;;;;5047812;28;20055;-53
2022/06/29 04:48:13;;;;;;;11.20;10.10;;;13.10;99.90;;;;;;5047414;28;20052;-52
2022/06/29 04:50:39;;;;;;;10.98;9.88;;;13.20;99.90;;;;;;5048925;28;20052;-53
2022/06/29 04:53:04;;;;;;;12.20;9.38;;;13.40;99.90;;;;;;5050902;28;20037;-53
2022/06/29 04:55:30;;;;;;;10.95;9.77;;;13.50;99.90;;;;;;5051111;28;20045;-54
2022/06/29 04:57:56;;;;;;;11.73;9.25;;;13.90;99.90;;;;;;5051074;28;20380;-54
2022/06/29 05:00:21;;;;;;;10.05;9.05;;;14.40;99.90;;;;;;5050789;28;20106;-54
2022/06/29 05:02:47;;;;;;;11.07;9.88;;;13.90;99.90;;;;;;5050492;28;20510;-54
2022/06/29 05:05:13;;;;;;;11.10;9.13;;;14.00;99.90;;;;;;5050148;28;20049;-51
2022/06/29 05:07:38;;;;;;;10.93;9.90;;;14.50;99.90;;;;;;5050252;28;20061;-54
2022/06/29 05:10:05;;;;;;;11.55;8.88;;;14.60;99.90;;;;;;5049862;28;20072;-53
2022/06/29 05:12:31;;;;;;;9.32;8.43;;;14.40;99.90;;;;;;5050742;28;20037;-54
2022/06/29 05:14:56;;;;;;;12.90;9.55;;;14.60;99.90;;;;;;5050503;28;20075;-54
2022/06/29 05:17:22;;;;;;;10.20;9.10;;;14.90;99.90;;;;;;5050839;28;20366;-54
2022/06/29 05:19:48;;;;;;;9.98;8.52;;;15.10;99.90;;;;;;5050134;28;20076;-54
2022/06/29 05:22:14;;;;;;;9.50;7.60;;;15.20;99.90;;;;;;5049488;28;20082;-54
2022/06/29 05:24:39;;;;;;;9.18;8.20;;;15.40;99.90;;;;;;5049942;28;20040;-55
2022/06/29 05:27:05;;;;;;;8.10;7.40;;;15.70;99.90;;;;;;5049873;28;20118;-54
2022/06/29 05:29:31;;;;;;;7.28;6.38;;;15.80;99.90;;;;;;5049995;28;20052;-55
2022/06/29 05:31:57;;;;;;;6.70;6.10;;;16.00;99.90;;;;;;5049630;28;20129;-54
2022/06/29 05:34:23;;;;;;;6.45;5.82;;;16.20;99.90;;;;;;5050202;28;20068;-54
2022/06/29 05:36:49;;;;;;;8.70;6.50;;;16.30;99.90;;;;;;5049601;28;20187;-55
2022/06/29 05:39:14;;;;;;;9.02;6.07;;;16.40;99.90;;;;;;5050607;28;20173;-54
2022/06/29 05:41:40;;;;;;;6.60;5.15;;;16.50;99.90;;;;;;5048661;28;20510;-54
2022/06/29 05:44:06;;;;;;;7.00;4.93;;;16.60;99.90;;;;;;5050062;28;20044;-55
2022/06/29 05:46:32;;;;;;;6.30;5.45;;;16.70;99.90;;;;;;5048707;28;20045;-54
2022/06/29 05:48:58;;;;;;;13.05;5.57;;;16.80;99.90;;;;;;5049887;28;20051;-55
2022/06/29 05:51:24;;;;;;;8.02;5.38;;;16.80;99.90;;;;;;5049927;28;20402;-54
2022/06/29 05:53:50;;;;;;;7.22;4.88;;;17.50;99.90;;;;;;5050011;28;20095;-55
2022/06/29 05:56:16;;;;;;;7.28;4.60;;;19.40;99.90;;;;;;5049732;28;20486;-55
2022/06/29 05:58:42;;;;;;;5.25;4.30;;;20.60;99.90;;;;;;5050334;28;20045;-55
2022/06/29 06:01:09;;;;;;;4.22;3.75;;;21.60;99.90;;;;;;5049342;28;20390;-56
2022/06/29 06:03:36;;;;;;;4.40;3.75;;;21.90;97.60;;;;;;5047312;28;20189;-55
2022/06/29 06:06:02;;;;;;;4.03;3.42;;;22.50;96.20;;;;;;5049027;28;20048;-56
2022/06/29 06:08:27;;;;;;;6.57;3.80;;;23.20;94.10;;;;;;5049340;28;20491;-56
2022/06/29 06:10:53;;;;;;;3.78;3.00;;;22.80;92.90;;;;;;5048925;28;20056;-56
2022/06/29 06:13:19;;;;;;;5.15;3.10;;;22.00;94.40;;;;;;5049372;28;20678;-56
2022/06/29 06:15:46;;;;;;;4.97;3.28;;;21.90;95.60;;;;;;5049506;28;20049;-56
2022/06/29 06:18:12;;;;;;;6.28;2.88;;;23.10;93.70;;;;;;5048778;28;20479;-57
2022/06/29 06:20:37;;;;;;;7.07;2.58;;;24.50;91.20;;;;;;5049338;28;20048;-56
2022/06/29 06:23:03;;;;;;;4.68;2.45;;;25.90;86.80;;;;;;5048757;28;20041;-57
2022/06/29 06:25:30;;;;;;;3.90;1.98;;;27.00;80.40;;;;;;5049413;28;20048;-57
2022/06/29 06:27:55;;;;;;;5.40;2.03;;;27.70;76.20;;;;;;5049419;28;20044;-57
2022/06/29 06:30:21;;;;;;;3.33;2.17;;;26.60;75.50;;;;;;5049130;28;20044;-57
2022/06/29 06:32:46;;;;;;;4.57;2.00;;;26.00;78.40;;;;;;5048378;28;20534;-57
2022/06/29 06:35:12;;;;;;;2.58;1.88;;;26.80;78.50;;;;;;5049041;28;20041;-57
2022/06/29 06:37:38;;;;;;;3.58;2.20;;;28.30;74.70;;;;;;5049198;28;20052;-57
2022/06/29 06:42:48;;;;;;;3.38;1.73;;;30.50;67.70;;;;;;5049116;28;20143;-57
2022/06/29 06:45:14;;;;;;;3.72;1.92;;;31.50;65.30;;;;;;5048215;28;20558;-57
2022/06/29 06:47:40;;;;;;;4.68;1.40;;;32.10;62.50;;;;;;5048704;28;20044;-57
2022/06/29 06:50:06;;;;;;;6.57;1.35;;;32.80;60.50;;;;;;5048494;28;20486;-57
2022/06/29 06:52:31;;;;;;;5.05;1.90;;;33.20;58.40;;;;;;5048500;28;20490;-57
2022/06/29 06:54:57;;;;;;;2.30;0.63;;;33.70;57.10;;;;;;5048559;28;20037;-57
2022/06/29 06:57:23;;;;;;;2.22;0.90;;;34.40;56.50;;;;;;5048402;28;20497;-57
2022/06/29 06:59:53;;;;;;;2.65;1.05;;;34.90;54.50;;;;;;5048831;28;20110;-59
2022/06/29 07:02:21;;;;;;;2.35;1.10;;;35.40;53.80;;;;;;5048310;28;20045;-59
2022/06/29 07:04:48;;;;;;;2.05;0.70;;;35.70;52.90;;;;;;5047955;28;20105;-59
2022/06/29 07:07:14;;;;;;;2.20;0.73;;;36.20;52.50;;;;;;5046802;28;20477;-57
2022/06/29 07:09:40;;;;;;;4.03;0.95;;;36.50;54.00;;;;;;5048112;28;20048;-58
2022/06/29 07:12:06;;;;;;;2.45;0.77;;;37.00;50.60;;;;;;5048249;28;20044;-58
2022/06/29 07:14:32;;;;;;;1.60;0.50;;;37.20;49.50;;;;;;5047877;28;20041;-58
2022/06/29 07:16:57;;;;;;;3.90;0.90;;;37.40;50.10;;;;;;5047852;28;20622;-58
2022/06/29 07:19:23;;;;;;;3.58;0.55;;;37.60;48.20;;;;;;5047895;28;20363;-59
2022/06/29 07:21:49;;;;;;;2.70;0.70;;;37.50;47.40;;;;;;5047711;28;20072;-59
2022/06/29 07:24:15;;;;;;;1.50;0.50;;;37.60;47.80;;;;;;5047942;28;20069;-58
2022/06/29 07:26:40;;;;;;;3.53;0.60;;;38.30;46.80;;;;;;5048143;28;20033;-59
2022/06/29 07:29:06;;;;;;;1.90;0.40;;;38.70;46.50;;;;;;5047605;28;20439;-58
2022/06/29 07:31:32;;;;;;;3.33;0.55;;;39.10;47.40;;;;;;5048105;28;20072;-58
2022/06/29 07:33:58;;;;;;;2.67;0.50;;;39.70;46.60;;;;;;5047674;28;20486;-58
2022/06/29 07:36:25;;;;;;;1.80;0.50;;;40.20;44.70;;;;;;5047530;28;20364;-58
2022/06/29 07:38:52;;;;;;;3.75;0.50;;;40.50;44.40;;;;;;5047607;28;20068;-58
2022/06/29 07:41:17;;;;;;;4.28;0.47;;;40.70;43.10;;;;;;5047426;28;20483;-58
2022/06/29 07:43:44;;;;;;;2.08;0.43;;;40.60;42.70;;;;;;5047688;28;20045;-58
2022/06/29 07:46:10;;;;;;;5.22;0.90;;;40.40;42.50;;;;;;5047595;28;20049;-59
2022/06/29 07:48:36;;;;;;;2.80;0.60;;;40.20;42.70;;;;;;5046065;28;20041;-58
2022/06/29 07:51:02;;;;;;;1.70;0.57;;;40.30;42.90;;;;;;5047295;28;20056;-58
2022/06/29 07:53:28;;;;;;;4.15;0.55;;;40.50;42.50;;;;;;5046483;28;20049;-59
2022/06/29 07:55:53;;;;;;;1.02;0.60;;;40.70;42.70;;;;;;5047459;28;20107;-58
2022/06/29 07:58:19;;;;;;;3.78;0.40;;;41.10;41.50;;;;;;5046381;28;20171;-51
2022/06/29 08:00:45;;;;;;;0.70;0.40;;;41.40;40.70;;;;;;5045550;28;20049;-49
2022/06/29 08:03:11;;;;;;;4.03;0.50;;;41.30;39.40;;;;;;5043010;28;20041;-50
2022/06/29 08:05:37;;;;;;;1.98;0.40;;;40.60;40.30;;;;;;5046775;28;20087;-50
2022/06/29 08:08:04;;;;;;;0.88;0.30;;;39.50;40.10;;;;;;5046239;28;20115;-53
2022/06/29 08:10:31;;;;;;;3.75;0.40;;;38.30;40.50;;;;;;5046829;28;20055;-53
2022/06/29 08:12:57;;;;;;;1.40;0.22;;;38.00;41.10;;;;;;5047885;28;20091;-55
2022/06/29 08:15:24;;;;;;;3.00;0.40;;;38.40;42.10;;;;;;5046886;28;20048;-53
2022/06/29 08:17:51;;;;;;;2.20;0.40;;;38.00;41.80;;;;;;5046843;28;20048;-52
2022/06/29 08:20:16;;;;;;;0.93;0.30;;;38.30;41.60;;;;;;5047470;28;20076;-55
2022/06/29 08:22:42;;;;;;;2.83;0.60;;;38.00;43.20;;;;;;5046776;28;20102;-56
2022/06/29 08:25:09;;;;;;;1.02;0.25;;;38.10;44.30;;;;;;5047800;28;20107;-47
2022/06/29 08:27:35;;;;;;;2.13;0.40;;;38.30;42.60;;;;;;5053507;28;20048;-46
2022/06/29 08:30:00;;;;;;;1.73;0.30;;;38.80;41.70;;;;;;5051818;28;20509;-50
2022/06/29 08:32:26;;;;;;;3.10;0.40;;;38.90;41.80;;;;;;5050651;28;20041;-49
2022/06/29 08:34:52;;;;;;;3.47;0.30;;;39.10;41.70;;;;;;5050563;28;20553;-48
2022/06/29 08:37:18;;;;;;;3.30;0.40;;;39.10;41.70;;;;;;5051384;28;20087;-49
2022/06/29 08:39:44;;;;;;;3.58;0.40;;;39.60;40.20;;;;;;5052970;28;20052;-51
2022/06/29 08:42:11;;;;;;;2.55;0.40;;;40.30;40.70;;;;;;5052569;28;20095;-49
2022/06/29 08:44:38;;;;;;;4.07;0.30;;;40.50;39.10;;;;;;5054376;28;20044;-48
2022/06/29 08:47:05;;;;;;;1.33;0.30;;;40.30;39.60;;;;;;5053836;28;20045;-49
2022/06/29 08:49:32;;;;;;;5.18;0.40;;;39.90;40.00;;;;;;5053476;28;20486;-47
2022/06/29 08:52:03;;;;;;;2.25;0.30;;;40.40;41.30;;;;;;5054132;28;20045;-50
2022/06/29 08:54:29;;;;;;;0.63;0.25;;;40.90;41.10;;;;;;5052513;28;20119;-49
2022/06/29 08:56:58;;;;;;;1.35;0.30;;;41.50;39.50;;;;;;5052242;28;20068;-49
2022/06/29 08:59:24;;;;;;;3.08;0.32;;;41.90;38.70;;;;;;5050879;28;20106;-47
2022/06/29 09:01:52;;;;;;;1.40;0.30;;;41.90;39.00;;;;;;5050971;28;20041;-46
2022/06/29 09:04:18;;;;;;;1.48;0.30;;;42.30;38.00;;;;;;5049906;28;20102;-54
2022/06/29 09:06:45;;;;;;;1.75;0.20;;;42.80;37.60;;;;;;5049384;28;20041;-51
2022/06/29 09:09:12;;;;;;;1.67;0.40;;;43.30;37.80;;;;;;5049167;28;20061;-52
2022/06/29 09:11:43;;;;;;;1.38;0.30;;;43.80;36.90;;;;;;5050195;28;20040;-49
2022/06/29 09:14:12;;;;;;;2.05;0.32;;;43.50;35.60;;;;;;5051343;28;20480;-49
2022/06/29 09:17:01;;;;;;;1.00;0.30;;;43.80;36.70;;;;;;5050178;28;20040;-50
2022/06/29 09:19:35;;;;;;;0.73;0.20;;;43.80;38.30;;;;;;5050371;28;20505;-50
2022/06/29 09:22:02;;;;;;;1.60;0.30;;;44.00;37.10;;;;;;5052600;28;20818;-48
2022/06/29 09:24:31;;;;;;;1.52;0.30;;;44.10;36.70;;;;;;5051056;28;20053;-49
2022/06/29 09:27:02;;;;;;;2.25;0.40;;;44.60;36.90;;;;;;5049105;28;20045;-50
2022/06/29 09:29:35;;;;;;;0.90;0.22;;;44.70;37.20;;;;;;5049963;28;20146;-56
2022/06/29 09:32:01;;;;;;;0.93;0.40;;;44.90;36.80;;;;;;5049561;28;20033;-48
2022/06/29 09:34:28;;;;;;;2.60;0.30;;;44.90;35.90;;;;;;5049333;28;20048;-50
2022/06/29 09:36:59;;;;;;;1.45;0.45;;;45.10;35.90;;;;;;5049366;28;20037;-47
2022/06/29 09:39:52;;;;;;;1.52;0.30;;;44.40;35.00;;;;;;5049353;28;20083;-44
2022/06/29 09:42:20;;;;;;;2.10;0.40;;;43.90;36.80;;;;;;5049793;28;20041;-48
2022/06/29 09:44:46;;;;;;;1.42;0.40;;;43.20;36.30;;;;;;5049361;28;20037;-46
2022/06/29 09:47:17;;;;;;;1.27;0.40;;;42.50;36.60;;;;;;5049559;28;20041;-47
2022/06/29 09:49:44;;;;;;;1.42;0.40;;;41.50;35.70;;;;;;5048978;28;20494;-47
2022/06/29 09:52:11;;;;;;;1.77;0.40;;;40.70;37.50;;;;;;5047948;28;20045;-46
2022/06/29 09:54:40;;;;;;;2.15;0.40;;;40.50;38.00;;;;;;5048573;28;20124;-46
2022/06/29 09:57:07;;;;;;;1.85;0.40;;;42.50;40.20;;;;;;5047809;28;20056;-47
2022/06/29 10:02:34;;;;;;;1.08;0.45;;;42.20;37.30;;;;;;5048916;28;20099;-48
2022/06/29 10:05:03;;;;;;;1.30;0.43;;;42.20;39.00;;;;;;5048647;28;20041;-46
2022/06/29 10:07:30;;;;;;;1.90;0.53;;;41.80;38.00;;;;;;5048514;28;20134;-45
2022/06/29 10:09:57;;;;;;;2.28;0.40;;;40.40;37.60;;;;;;5048802;28;20496;-45
2022/06/29 10:15:56;;;;;;;1.83;0.40;;;38.60;37.20;;;;;;5048577;28;20178;-48
2022/06/29 10:18:31;;;;;;;1.98;0.45;;;38.10;41.10;;;;;;5048602;28;20136;-42
2022/06/29 10:20:58;;;;;;;1.98;0.30;;;38.20;39.60;;;;;;5048650;28;20040;-45
2022/06/29 10:23:50;;;;;;;2.47;0.50;;;38.40;39.90;;;;;;5048336;28;20052;-49
2022/06/29 10:26:28;;;;;;;2.65;0.40;;;38.50;41.10;;;;;;5048461;28;20153;-51
2022/06/29 10:29:16;;;;;;;0.55;0.20;;;38.70;40.40;;;;;;5048307;28;20052;-51
2022/06/29 10:32:06;;;;;;;1.67;0.40;;;38.30;40.00;;;;;;5047729;28;20127;-51
2022/06/29 10:34:37;;;;;;;3.70;0.40;;;37.20;40.10;;;;;;5046719;28;20080;-50
2022/06/29 10:37:04;;;;;;;2.00;0.40;;;36.50;40.80;;;;;;5046846;28;20080;-50
2022/06/29 10:39:45;;;;;;;2.30;0.35;;;36.10;41.90;;;;;;5047925;28;20049;-49
2022/06/29 10:45:17;;;;;;;3.72;0.50;;;35.30;42.00;;;;;;5048138;28;20087;-50
2022/06/29 10:48:07;;;;;;;1.88;0.50;;;34.60;43.40;;;;;;5048193;28;20099;-50
2022/06/29 10:50:38;;;;;;;1.45;0.47;;;33.80;46.60;;;;;;5046577;28;20124;-53
2022/06/29 10:53:10;;;;;;;2.67;0.55;;;33.00;45.30;;;;;;5048265;28;20052;-50
2022/06/29 10:55:40;;;;;;;2.03;0.55;;;32.30;47.40;;;;;;5048295;28;20041;-48
2022/06/29 10:58:05;;;;;;;2.38;0.65;;;31.80;47.00;;;;;;5047034;28;20211;-49
2022/06/29 11:00:34;;;;;;;5.53;0.70;;;31.40;49.30;;;;;;5047918;28;20119;-49
2022/06/29 11:03:14;;;;;;;2.13;0.60;;;31.20;51.80;;;;;;5048112;28;20059;-49
2022/06/29 11:13:58;;;;;;;1.35;0.35;;;30.80;49.70;;;;;;5047505;28;20398;-48
2022/06/29 11:16:29;;;;;;;3.10;0.77;;;32.60;51.00;;;;;;5047215;28;20083;-48
2022/06/29 11:18:56;;;;;;;3.30;0.60;;;30.50;48.30;;;;;;5048169;28;20367;-50
2022/06/29 11:21:22;;;;;;;12.30;0.68;;;30.40;48.60;;;;;;5048025;28;20112;-46
2022/06/29 11:23:55;;;;;;;3.30;0.57;;;30.40;50.50;;;;;;5048580;28;20116;-45
2022/06/29 11:26:23;;;;;;;1.10;0.40;;;30.40;49.00;;;;;;5049583;28;20125;-45
2022/06/29 11:28:49;;;;;;;1.25;0.50;;;30.50;49.80;;;;;;5048990;28;20055;-44
2022/06/29 11:31:17;;;;;;;2.78;0.70;;;30.50;49.40;;;;;;5047972;28;20151;-44
2022/06/29 11:33:52;;;;;;;3.10;0.68;;;30.50;49.60;;;;;;5047176;28;20076;-46
2022/06/29 11:36:30;;;;;;;1.38;0.73;;;30.60;51.50;;;;;;5047270;28;20036;-45
2022/06/29 11:39:06;;;;;;;2.65;0.80;;;30.50;51.40;;;;;;5047635;28;20041;-44
2022/06/29 11:44:27;;;;;;;2.63;0.88;;;30.30;48.90;;;;;;5047173;28;20532;-51
2022/06/29 11:46:54;;;;;;;1.75;0.60;;;30.50;49.10;;;;;;5047169;28;20179;-48
2022/06/29 11:49:36;;;;;;;1.42;0.80;;;30.60;49.40;;;;;;5047097;28;20076;-44
2022/06/29 11:52:08;;;;;;;1.58;0.88;;;30.50;51.10;;;;;;5047544;28;20720;-44
2022/06/29 11:54:48;;;;;;;2.00;1.20;;;30.30;53.60;;;;;;5047119;28;20784;-47
2022/06/29 11:57:17;;;;;;;3.85;1.17;;;30.00;52.90;;;;;;5047303;28;20509;-46
2022/06/29 11:59:44;;;;;;;3.00;0.88;;;29.80;54.20;;;;;;5046765;28;20068;-50
2022/06/29 12:02:15;;;;;;;3.05;0.88;;;29.80;55.00;;;;;;5051041;28;20568;-52
2022/06/29 12:04:43;;;;;;;1.58;1.10;;;30.10;55.70;;;;;;5049304;28;20080;-49
2022/06/29 12:07:13;;;;;;;3.60;1.40;;;30.20;55.40;;;;;;5050896;28;20054;-47
2022/06/29 12:09:41;;;;;;;4.25;1.80;;;30.50;55.40;;;;;;5050713;28;20041;-48
2022/06/29 12:12:09;;;;;;;2.17;1.40;;;30.50;52.80;;;;;;5051395;28;20051;-50
2022/06/29 12:14:38;;;;;;;6.68;2.13;;;30.40;52.50;;;;;;5050652;28;20170;-53
2022/06/29 12:17:05;;;;;;;1.95;1.58;;;30.20;53.30;;;;;;5034768;28;20475;-57
2022/06/29 12:19:31;;;;;;;2.53;1.23;;;30.20;54.10;;;;;;5050588;28;20076;-57
2022/06/29 12:22:00;;;;;;;1.95;1.42;;;30.20;54.30;;;;;;5052298;28;20399;-57
2022/06/29 12:24:26;;;;;;;2.45;1.42;;;30.20;53.80;;;;;;5051973;28;20510;-56
2022/06/29 12:26:53;;;;;;;4.65;1.70;;;30.30;53.30;;;;;;5052360;28;20044;-57
2022/06/29 12:29:19;;;;;;;4.50;1.75;;;30.30;52.90;;;;;;5052220;28;20124;-57
2022/06/29 12:31:44;;;;;;;2.42;1.65;;;30.30;52.90;;;;;;5052249;28;20898;-57
2022/06/29 12:34:11;;;;;;;4.35;1.70;;;30.30;53.00;;;;;;5052369;28;20037;-57
2022/06/29 12:36:37;;;;;;;3.13;1.85;;;30.30;52.60;;;;;;5050466;28;20076;-57
2022/06/29 12:39:04;;;;;;;3.97;1.60;;;30.10;52.80;;;;;;5052461;28;20075;-57
2022/06/29 12:41:31;;;;;;;2.15;1.58;;;30.10;53.00;;;;;;5051999;28;20040;-57
2022/06/29 12:43:57;;;;;;;4.43;1.63;;;30.40;53.20;;;;;;5052148;28;20052;-57
2022/06/29 12:46:23;;;;;;;3.55;1.58;;;30.60;52.90;;;;;;5033789;28;20047;-56
2022/06/29 12:48:49;;;;;;;1.95;1.75;;;30.50;53.30;;;;;;5051604;28;20053;-57
2022/06/29 12:51:14;;;;;;;3.72;1.60;;;30.60;55.80;;;;;;5051266;28;20490;-57
2022/06/29 12:53:40;;;;;;;4.25;1.90;;;30.70;55.00;;;;;;5051051;28;20398;-57
2022/06/29 12:56:06;;;;;;;3.25;1.50;;;30.70;55.10;;;;;;5051309;28;20064;-57
2022/06/29 12:58:33;;;;;;;3.95;1.45;;;30.30;53.20;;;;;;5051956;28;20040;-56
2022/06/29 13:00:58;;;;;;;3.92;1.98;;;29.90;53.00;;;;;;5051882;28;20045;-56
2022/06/29 13:03:24;;;;;;;3.55;2.17;;;29.50;54.00;;;;;;5051868;28;20094;-56
2022/06/29 13:05:51;;;;;;;3.60;2.70;;;29.10;55.10;;;;;;5051327;28;20116;-56
2022/06/29 13:08:17;;;;;;;4.18;2.17;;;28.70;55.00;;;;;;5049275;28;20064;-56
2022/06/29 13:10:43;;;;;;;5.38;2.45;;;28.40;56.30;;;;;;5049996;28;20041;-56
2022/06/29 13:13:08;;;;;;;3.05;2.35;;;28.20;56.60;;;;;;5051190;28;20041;-56
2022/06/29 13:15:34;;;;;;;2.75;1.83;;;28.10;56.70;;;;;;5051294;28;20033;-56